sensor_id;sensor_type;location;lat;lon;timestamp;pressure;altitude;pressure_sealevel;temperature;humidity
10992;BME280;5549;47.028;15.514;2023-03-26T00:01:40;96166.19;;;8.12;68.67
10992;BME280;5549;47.028;15.514;2023-03-26T00:04:12;96167.63;;;8.05;69.90
10992;BME280;5549;47.028;15.514;2023-03-26T00:06:41;96154.09;;;8.00;70.28
10992;BME280;5549;47.028;15.514;2023-03-26T00:09:10;96154.81;;;7.91;70.73
10992;BME280;5549;47.028;15.514;2023-03-26T00:11:42;96162.31;;;7.84;71.17
10992;BME280;5549;47.028;15.514;2023-03-26T00:14:10;96161.75;;;7.81;71.75
10992;BME280;5549;47.028;15.514;2023-03-26T00:16:41;96157.59;;;7.78;71.63
10992;BME280;5549;47.028;15.514;2023-03-26T00:19:09;96157.22;;;7.83;70.88
10992;BME280;5549;47.028;15.514;2023-03-26T00:21:37;96154.25;;;7.87;70.49
10992;BME280;5549;47.028;15.514;2023-03-26T00:24:11;96156.59;;;7.90;69.49
10992;BME280;5549;47.028;15.514;2023-03-26T00:26:40;96159.69;;;7.95;69.45
10992;BME280;5549;47.028;15.514;2023-03-26T00:29:09;96154.91;;;8.00;68.99
10992;BME280;5549;47.028;15.514;2023-03-26T00:31:38;96153.84;;;8.03;69.58
10992;BME280;5549;47.028;15.514;2023-03-26T00:34:06;96156.78;;;8.10;70.37
10992;BME280;5549;47.028;15.514;2023-03-26T00:36:37;96153.72;;;8.04;70.87
10992;BME280;5549;47.028;15.514;2023-03-26T00:39:08;96156.34;;;8.04;70.53
10992;BME280;5549;47.028;15.514;2023-03-26T00:41:38;96151.94;;;8.05;69.43
10992;BME280;5549;47.028;15.514;2023-03-26T00:44:08;96154.56;;;8.05;69.04
10992;BME280;5549;47.028;15.514;2023-03-26T00:46:36;96148.50;;;8.04;70.06
10992;BME280;5549;47.028;15.514;2023-03-26T00:49:04;96149.31;;;8.05;69.95
10992;BME280;5549;47.028;15.514;2023-03-26T00:51:38;96131.84;;;8.05;69.36
10992;BME280;5549;47.028;15.514;2023-03-26T00:54:09;96144.44;;;8.12;69.28
10992;BME280;5549;47.028;15.514;2023-03-26T00:56:39;96140.41;;;8.08;70.39
10992;BME280;5549;47.028;15.514;2023-03-26T00:59:06;96134.09;;;8.10;70.18
10992;BME280;5549;47.028;15.514;2023-03-26T01:01:37;96144.69;;;8.09;70.42
10992;BME280;5549;47.028;15.514;2023-03-26T01:04:28;96145.16;;;8.02;70.85
10992;BME280;5549;47.028;15.514;2023-03-26T01:07:09;96141.84;;;8.00;70.62
10992;BME280;5549;47.028;15.514;2023-03-26T01:09:44;96136.66;;;7.89;70.71
10992;BME280;5549;47.028;15.514;2023-03-26T01:12:19;96130.38;;;7.81;71.02
10992;BME280;5549;47.028;15.514;2023-03-26T01:14:48;96127.16;;;7.77;70.80
10992;BME280;5549;47.028;15.514;2023-03-26T01:17:19;96127.28;;;7.76;70.28
10992;BME280;5549;47.028;15.514;2023-03-26T01:19:53;96112.44;;;7.76;69.93
10992;BME280;5549;47.028;15.514;2023-03-26T01:22:26;96115.88;;;7.77;68.96
10992;BME280;5549;47.028;15.514;2023-03-26T01:24:55;96116.72;;;7.77;69.08
10992;BME280;5549;47.028;15.514;2023-03-26T01:27:32;96092.25;;;7.78;69.07
10992;BME280;5549;47.028;15.514;2023-03-26T01:30:14;96090.38;;;7.69;71.14
10992;BME280;5549;47.028;15.514;2023-03-26T01:32:57;96097.50;;;7.67;70.85
10992;BME280;5549;47.028;15.514;2023-03-26T01:35:43;96090.59;;;7.66;70.19
10992;BME280;5549;47.028;15.514;2023-03-26T01:38:23;96092.28;;;7.67;69.90
10992;BME280;5549;47.028;15.514;2023-03-26T01:41:02;96114.19;;;6.99;73.26
10992;BME280;5549;47.028;15.514;2023-03-26T01:43:35;96093.34;;;6.53;73.23
10992;BME280;5549;47.028;15.514;2023-03-26T01:46:08;96107.41;;;6.39;73.39
10992;BME280;5549;47.028;15.514;2023-03-26T01:48:40;96089.16;;;6.39;73.65
10992;BME280;5549;47.028;15.514;2023-03-26T01:51:12;96109.06;;;6.05;75.78
10992;BME280;5549;47.028;15.514;2023-03-26T01:53:43;96092.25;;;5.85;76.31
10992;BME280;5549;47.028;15.514;2023-03-26T01:56:19;96086.19;;;5.97;75.27
10992;BME280;5549;47.028;15.514;2023-03-26T01:59:20;96070.69;;;6.07;74.41
10992;BME280;5549;47.028;15.514;2023-03-26T02:01:59;96086.72;;;6.14;74.91
10992;BME280;5549;47.028;15.514;2023-03-26T02:04:38;96094.94;;;5.96;74.22
10992;BME280;5549;47.028;15.514;2023-03-26T02:07:13;96097.25;;;5.64;75.74
10992;BME280;5549;47.028;15.514;2023-03-26T02:09:49;96102.59;;;5.50;75.73
10992;BME280;5549;47.028;15.514;2023-03-26T02:12:22;96102.63;;;5.37;76.72
10992;BME280;5549;47.028;15.514;2023-03-26T02:14:52;96110.84;;;5.44;76.18
10992;BME280;5549;47.028;15.514;2023-03-26T02:17:20;96111.03;;;5.54;76.76
10992;BME280;5549;47.028;15.514;2023-03-26T02:19:51;96100.31;;;5.45;77.79
10992;BME280;5549;47.028;15.514;2023-03-26T02:22:22;96089.97;;;5.57;77.88
10992;BME280;5549;47.028;15.514;2023-03-26T02:24:58;96103.38;;;5.63;77.41
10992;BME280;5549;47.028;15.514;2023-03-26T02:27:27;96111.38;;;5.73;77.18
10992;BME280;5549;47.028;15.514;2023-03-26T02:29:55;96102.19;;;5.80;77.25
10992;BME280;5549;47.028;15.514;2023-03-26T02:32:22;96097.41;;;5.74;75.92
10992;BME280;5549;47.028;15.514;2023-03-26T02:34:52;96093.41;;;5.81;75.64
10992;BME280;5549;47.028;15.514;2023-03-26T02:37:22;96098.28;;;5.86;75.39
10992;BME280;5549;47.028;15.514;2023-03-26T02:39:52;96087.03;;;5.85;75.02
10992;BME280;5549;47.028;15.514;2023-03-26T02:42:20;96081.81;;;5.85;75.05
10992;BME280;5549;47.028;15.514;2023-03-26T02:44:51;96093.34;;;5.70;74.06
10992;BME280;5549;47.028;15.514;2023-03-26T02:47:18;96100.63;;;5.54;73.87
10992;BME280;5549;47.028;15.514;2023-03-26T02:49:46;96101.09;;;5.35;73.99
10992;BME280;5549;47.028;15.514;2023-03-26T02:52:16;96098.91;;;5.16;75.16
10992;BME280;5549;47.028;15.514;2023-03-26T02:54:46;96104.84;;;5.18;75.43
10992;BME280;5549;47.028;15.514;2023-03-26T02:57:14;96099.75;;;5.29;74.86
10992;BME280;5549;47.028;15.514;2023-03-26T02:59:41;96100.97;;;5.36;75.16
10992;BME280;5549;47.028;15.514;2023-03-26T03:02:15;96100.16;;;5.36;75.20
10992;BME280;5549;47.028;15.514;2023-03-26T03:04:43;96094.00;;;5.37;75.60
10992;BME280;5549;47.028;15.514;2023-03-26T03:07:13;96096.41;;;5.27;75.32
10992;BME280;5549;47.028;15.514;2023-03-26T03:09:41;96100.19;;;5.23;75.25
10992;BME280;5549;47.028;15.514;2023-03-26T03:12:08;96101.19;;;5.33;74.62
10992;BME280;5549;47.028;15.514;2023-03-26T03:14:36;96109.72;;;5.35;74.33
10992;BME280;5549;47.028;15.514;2023-03-26T03:17:06;96101.53;;;5.29;74.60
10992;BME280;5549;47.028;15.514;2023-03-26T03:19:34;96109.72;;;5.35;74.96
10992;BME280;5549;47.028;15.514;2023-03-26T03:22:05;96110.75;;;5.45;74.02
10992;BME280;5549;47.028;15.514;2023-03-26T03:24:32;96109.25;;;5.54;73.45
10992;BME280;5549;47.028;15.514;2023-03-26T03:27:04;96108.00;;;5.60;73.46
10992;BME280;5549;47.028;15.514;2023-03-26T03:29:32;96097.84;;;5.44;74.36
10992;BME280;5549;47.028;15.514;2023-03-26T03:31:59;96090.69;;;5.59;73.80
10992;BME280;5549;47.028;15.514;2023-03-26T03:34:29;96094.41;;;5.67;73.38
10992;BME280;5549;47.028;15.514;2023-03-26T03:37:00;96087.94;;;5.73;72.21
10992;BME280;5549;47.028;15.514;2023-03-26T03:39:30;96093.53;;;5.79;72.51
10992;BME280;5549;47.028;15.514;2023-03-26T03:41:57;96095.75;;;5.73;72.95
10992;BME280;5549;47.028;15.514;2023-03-26T03:44:25;96096.56;;;5.73;72.91
10992;BME280;5549;47.028;15.514;2023-03-26T03:46:52;96101.91;;;5.72;72.48
10992;BME280;5549;47.028;15.514;2023-03-26T03:49:21;96097.91;;;5.79;71.93
10992;BME280;5549;47.028;15.514;2023-03-26T03:51:50;96109.09;;;5.68;73.04
10992;BME280;5549;47.028;15.514;2023-03-26T03:54:21;96109.22;;;5.67;72.60
10992;BME280;5549;47.028;15.514;2023-03-26T03:56:52;96108.00;;;5.60;73.10
10992;BME280;5549;47.028;15.514;2023-03-26T03:59:22;96103.38;;;5.63;73.41
10992;BME280;5549;47.028;15.514;2023-03-26T04:01:52;96095.06;;;5.58;73.46
10992;BME280;5549;47.028;15.514;2023-03-26T04:04:21;96103.00;;;5.57;73.67
10992;BME280;5549;47.028;15.514;2023-03-26T04:06:50;96107.03;;;5.61;73.23
10992;BME280;5549;47.028;15.514;2023-03-26T04:09:17;96106.81;;;5.40;75.31
10992;BME280;5549;47.028;15.514;2023-03-26T04:11:46;96109.94;;;5.32;77.55
10992;BME280;5549;47.028;15.514;2023-03-26T04:14:15;96116.25;;;5.54;77.48
10992;BME280;5549;47.028;15.514;2023-03-26T04:16:43;96109.16;;;5.79;75.75
10992;BME280;5549;47.028;15.514;2023-03-26T04:19:12;96109.34;;;5.89;74.87
10992;BME280;5549;47.028;15.514;2023-03-26T04:21:41;96111.88;;;5.78;75.71
10992;BME280;5549;47.028;15.514;2023-03-26T04:24:09;96110.69;;;5.95;75.12
10992;BME280;5549;47.028;15.514;2023-03-26T04:26:37;96103.69;;;5.95;75.08
10992;BME280;5549;47.028;15.514;2023-03-26T04:29:11;96104.97;;;6.14;74.22
10992;BME280;5549;47.028;15.514;2023-03-26T04:31:44;96120.63;;;5.77;74.60
10992;BME280;5549;47.028;15.514;2023-03-26T04:34:20;96121.22;;;5.93;73.47
10992;BME280;5549;47.028;15.514;2023-03-26T04:36:52;96109.63;;;5.97;73.12
10992;BME280;5549;47.028;15.514;2023-03-26T04:39:20;96111.41;;;5.97;73.36
10992;BME280;5549;47.028;15.514;2023-03-26T04:41:50;96109.34;;;5.89;73.40
10992;BME280;5549;47.028;15.514;2023-03-26T04:44:21;96103.34;;;5.76;73.45
10992;BME280;5549;47.028;15.514;2023-03-26T04:46:49;96100.28;;;5.82;72.89
10992;BME280;5549;47.028;15.514;2023-03-26T04:49:18;96092.97;;;5.87;73.12
10992;BME280;5549;47.028;15.514;2023-03-26T04:51:48;96082.25;;;5.92;72.55
10992;BME280;5549;47.028;15.514;2023-03-26T04:54:19;96085.38;;;5.84;73.48
10992;BME280;5549;47.028;15.514;2023-03-26T04:56:54;96089.34;;;5.90;72.69
10992;BME280;5549;47.028;15.514;2023-03-26T04:59:28;96081.19;;;5.94;72.77
10992;BME280;5549;47.028;15.514;2023-03-26T05:02:01;96084.41;;;5.98;71.80
10992;BME280;5549;47.028;15.514;2023-03-26T05:04:29;96085.72;;;6.03;71.41
10992;BME280;5549;47.028;15.514;2023-03-26T05:07:02;96085.28;;;6.09;70.96
10992;BME280;5549;47.028;15.514;2023-03-26T05:09:29;96076.28;;;6.14;71.69
10992;BME280;5549;47.028;15.514;2023-03-26T05:11:57;96084.00;;;6.15;72.00
10992;BME280;5549;47.028;15.514;2023-03-26T05:14:29;96087.72;;;5.76;73.19
10992;BME280;5549;47.028;15.514;2023-03-26T05:16:56;96081.44;;;5.78;72.30
10992;BME280;5549;47.028;15.514;2023-03-26T05:19:24;96086.28;;;5.72;72.42
10992;BME280;5549;47.028;15.514;2023-03-26T05:21:55;96077.91;;;5.79;72.35
10992;BME280;5549;47.028;15.514;2023-03-26T05:24:22;96067.25;;;5.83;72.77
10992;BME280;5549;47.028;15.514;2023-03-26T05:26:51;96066.88;;;5.76;72.07
10992;BME280;5549;47.028;15.514;2023-03-26T05:29:21;96068.03;;;5.72;72.65
10992;BME280;5549;47.028;15.514;2023-03-26T05:31:50;96067.91;;;5.73;72.67
10992;BME280;5549;47.028;15.514;2023-03-26T05:34:19;96063.09;;;5.80;72.34
10992;BME280;5549;47.028;15.514;2023-03-26T05:36:52;96060.97;;;5.85;72.21
10992;BME280;5549;47.028;15.514;2023-03-26T05:39:21;96057.84;;;5.93;71.33
10992;BME280;5549;47.028;15.514;2023-03-26T05:41:54;96067.72;;;6.00;72.00
10992;BME280;5549;47.028;15.514;2023-03-26T05:44:21;96076.69;;;5.96;72.21
10992;BME280;5549;47.028;15.514;2023-03-26T05:46:50;96075.53;;;6.00;72.43
10992;BME280;5549;47.028;15.514;2023-03-26T05:49:18;96080.28;;;6.06;72.71
10992;BME280;5549;47.028;15.514;2023-03-26T05:51:48;96071.78;;;6.16;72.97
10992;BME280;5549;47.028;15.514;2023-03-26T05:54:15;96058.63;;;6.17;72.45
10992;BME280;5549;47.028;15.514;2023-03-26T05:56:43;96059.31;;;6.08;72.06
10992;BME280;5549;47.028;15.514;2023-03-26T05:59:13;96054.59;;;6.13;72.40
10992;BME280;5549;47.028;15.514;2023-03-26T06:01:44;96054.13;;;6.19;72.45
10992;BME280;5549;47.028;15.514;2023-03-26T06:04:15;96055.47;;;6.25;73.28
10992;BME280;5549;47.028;15.514;2023-03-26T06:06:43;96058.78;;;6.27;73.47
10992;BME280;5549;47.028;15.514;2023-03-26T06:09:11;96064.72;;;6.29;73.67
10992;BME280;5549;47.028;15.514;2023-03-26T06:11:40;96072.22;;;6.44;73.83
10992;BME280;5549;47.028;15.514;2023-03-26T06:14:08;96064.91;;;6.83;78.51
10992;BME280;5549;47.028;15.514;2023-03-26T06:16:38;96064.31;;;7.24;80.48
10992;BME280;5549;47.028;15.514;2023-03-26T06:19:05;96056.25;;;7.70;79.50
10992;BME280;5549;47.028;15.514;2023-03-26T06:21:36;96046.25;;;8.08;77.73
10992;BME280;5549;47.028;15.514;2023-03-26T06:24:05;96049.44;;;8.43;76.17
10992;BME280;5549;47.028;15.514;2023-03-26T06:26:32;96051.84;;;8.77;74.16
10992;BME280;5549;47.028;15.514;2023-03-26T06:29:03;96056.75;;;8.91;71.16
10992;BME280;5549;47.028;15.514;2023-03-26T06:31:31;96064.31;;;9.24;69.07
10992;BME280;5549;47.028;15.514;2023-03-26T06:33:58;96052.38;;;9.51;68.23
10992;BME280;5549;47.028;15.514;2023-03-26T06:36:26;96043.75;;;9.79;66.55
10992;BME280;5549;47.028;15.514;2023-03-26T06:38:57;96045.25;;;10.11;67.82
10992;BME280;5549;47.028;15.514;2023-03-26T06:41:25;96032.28;;;10.38;67.29
10992;BME280;5549;47.028;15.514;2023-03-26T06:43:53;96030.63;;;10.56;65.62
10992;BME280;5549;47.028;15.514;2023-03-26T06:46:21;96015.00;;;10.65;64.10
10992;BME280;5549;47.028;15.514;2023-03-26T06:48:53;96013.38;;;10.91;65.29
10992;BME280;5549;47.028;15.514;2023-03-26T06:51:20;96023.47;;;11.23;65.43
10992;BME280;5549;47.028;15.514;2023-03-26T06:53:50;96034.41;;;11.46;63.66
10992;BME280;5549;47.028;15.514;2023-03-26T06:56:19;96035.22;;;11.74;63.50
10992;BME280;5549;47.028;15.514;2023-03-26T06:58:46;96032.47;;;11.93;62.50
10992;BME280;5549;47.028;15.514;2023-03-26T07:01:14;96035.66;;;11.69;61.27
10992;BME280;5549;47.028;15.514;2023-03-26T07:03:44;96032.19;;;11.51;60.44
10992;BME280;5549;47.028;15.514;2023-03-26T07:06:11;96042.41;;;11.27;60.32
10992;BME280;5549;47.028;15.514;2023-03-26T07:08:39;96037.53;;;11.04;60.73
10992;BME280;5549;47.028;15.514;2023-03-26T07:11:06;96046.19;;;10.77;59.35
10992;BME280;5549;47.028;15.514;2023-03-26T07:13:38;96041.97;;;10.28;60.51
10992;BME280;5549;47.028;15.514;2023-03-26T07:16:07;96043.03;;;9.77;61.24
10992;BME280;5549;47.028;15.514;2023-03-26T07:18:35;96035.00;;;9.50;62.13
10992;BME280;5549;47.028;15.514;2023-03-26T07:21:06;96027.53;;;9.45;62.86
10992;BME280;5549;47.028;15.514;2023-03-26T07:23:35;96026.00;;;9.33;63.30
10992;BME280;5549;47.028;15.514;2023-03-26T07:26:17;96020.50;;;9.46;63.37
10992;BME280;5549;47.028;15.514;2023-03-26T07:28:58;96014.47;;;9.55;63.85
10992;BME280;5549;47.028;15.514;2023-03-26T07:31:33;96017.38;;;9.61;64.53
10992;BME280;5549;47.028;15.514;2023-03-26T07:34:16;96010.00;;;9.26;65.60
10992;BME280;5549;47.028;15.514;2023-03-26T07:36:54;96012.38;;;9.39;66.47
10992;BME280;5549;47.028;15.514;2023-03-26T07:39:42;96014.59;;;9.63;66.95
10992;BME280;5549;47.028;15.514;2023-03-26T07:42:25;96012.00;;;9.82;66.72
10992;BME280;5549;47.028;15.514;2023-03-26T07:45:02;96016.97;;;9.85;66.46
10992;BME280;5549;47.028;15.514;2023-03-26T07:47:39;96017.44;;;9.31;66.25
10992;BME280;5549;47.028;15.514;2023-03-26T07:50:14;96009.78;;;9.68;66.15
10992;BME280;5549;47.028;15.514;2023-03-26T07:52:43;95998.06;;;9.82;66.13
10992;BME280;5549;47.028;15.514;2023-03-26T07:55:15;95988.66;;;9.98;64.81
10992;BME280;5549;47.028;15.514;2023-03-26T07:57:59;95985.34;;;10.16;64.91
10992;BME280;5549;47.028;15.514;2023-03-26T08:00:39;95982.31;;;10.20;65.02
10992;BME280;5549;47.028;15.514;2023-03-26T08:03:34;95970.69;;;10.33;64.77
10992;BME280;5549;47.028;15.514;2023-03-26T08:06:14;95964.19;;;10.46;63.86
10992;BME280;5549;47.028;15.514;2023-03-26T08:08:52;95954.09;;;10.51;63.83
10992;BME280;5549;47.028;15.514;2023-03-26T08:11:33;95954.78;;;10.53;63.84
10992;BME280;5549;47.028;15.514;2023-03-26T08:14:27;95969.00;;;10.60;64.13
10992;BME280;5549;47.028;15.514;2023-03-26T08:17:04;95965.50;;;10.70;63.07
10992;BME280;5549;47.028;15.514;2023-03-26T08:20:05;95966.56;;;10.20;63.67
10992;BME280;5549;47.028;15.514;2023-03-26T08:22:39;95965.19;;;10.26;62.89
10992;BME280;5549;47.028;15.514;2023-03-26T08:25:21;95965.16;;;10.16;64.18
10992;BME280;5549;47.028;15.514;2023-03-26T08:28:12;95959.41;;;9.93;65.19
10992;BME280;5549;47.028;15.514;2023-03-26T08:30:45;95961.47;;;10.00;64.54
10992;BME280;5549;47.028;15.514;2023-03-26T08:33:18;95965.75;;;10.01;64.64
10992;BME280;5549;47.028;15.514;2023-03-26T08:35:47;95969.34;;;10.00;64.62
10992;BME280;5549;47.028;15.514;2023-03-26T08:38:19;95961.19;;;10.03;65.38
10992;BME280;5549;47.028;15.514;2023-03-26T08:41:33;95964.75;;;10.11;65.26
10992;BME280;5549;47.028;15.514;2023-03-26T08:48:27;95949.72;;;10.23;65.15
10992;BME280;5549;47.028;15.514;2023-03-26T08:54:52;95949.09;;;10.58;63.40
10992;BME280;5549;47.028;15.514;2023-03-26T09:08:05;95927.47;;;10.74;61.26
10992;BME280;5549;47.028;15.514;2023-03-26T09:14:38;95903.00;;;10.36;64.84
10992;BME280;5549;47.028;15.514;2023-03-26T09:17:38;95898.34;;;10.20;65.96
10992;BME280;5549;47.028;15.514;2023-03-26T09:21:01;95890.25;;;10.51;65.53
10992;BME280;5549;47.028;15.514;2023-03-26T09:24:17;95887.16;;;10.65;64.73
10992;BME280;5549;47.028;15.514;2023-03-26T09:27:08;95885.25;;;10.85;64.11
10992;BME280;5549;47.028;15.514;2023-03-26T09:36:39;95869.69;;;11.37;58.83
10992;BME280;5549;47.028;15.514;2023-03-26T09:39:21;95861.06;;;11.27;57.23
10992;BME280;5549;47.028;15.514;2023-03-26T09:42:07;95847.91;;;11.44;57.35
10992;BME280;5549;47.028;15.514;2023-03-26T09:45:20;95833.69;;;11.55;57.55
10992;BME280;5549;47.028;15.514;2023-03-26T09:48:24;95824.69;;;11.40;54.75
10992;BME280;5549;47.028;15.514;2023-03-26T09:51:14;95821.09;;;11.41;54.94
10992;BME280;5549;47.028;15.514;2023-03-26T09:54:09;95815.25;;;11.73;53.27
10992;BME280;5549;47.028;15.514;2023-03-26T09:56:51;95814.81;;;12.03;53.47
10992;BME280;5549;47.028;15.514;2023-03-26T09:59:47;95823.97;;;12.17;54.26
10992;BME280;5549;47.028;15.514;2023-03-26T10:02:42;95814.41;;;12.50;54.69
10992;BME280;5549;47.028;15.514;2023-03-26T10:05:24;95807.59;;;12.39;56.27
10992;BME280;5549;47.028;15.514;2023-03-26T10:08:23;95806.56;;;12.66;54.21
10992;BME280;5549;47.028;15.514;2023-03-26T10:11:04;95794.56;;;12.80;52.78
10992;BME280;5549;47.028;15.514;2023-03-26T10:13:48;95796.88;;;12.75;51.22
10992;BME280;5549;47.028;15.514;2023-03-26T10:16:27;95788.28;;;12.73;51.57
10992;BME280;5549;47.028;15.514;2023-03-26T10:19:16;95776.47;;;12.85;51.88
10992;BME280;5549;47.028;15.514;2023-03-26T10:21:58;95774.78;;;12.68;52.21
10992;BME280;5549;47.028;15.514;2023-03-26T10:24:52;95769.16;;;12.55;52.88
10992;BME280;5549;47.028;15.514;2023-03-26T10:27:42;95760.91;;;12.49;52.16
10992;BME280;5549;47.028;15.514;2023-03-26T10:30:24;95758.75;;;12.45;54.12
10992;BME280;5549;47.028;15.514;2023-03-26T10:33:06;95758.28;;;12.58;53.34
10992;BME280;5549;47.028;15.514;2023-03-26T10:35:52;95756.38;;;12.92;53.46
10992;BME280;5549;47.028;15.514;2023-03-26T10:38:42;95750.47;;;13.14;54.24
10992;BME280;5549;47.028;15.514;2023-03-26T10:41:19;95736.97;;;13.50;53.50
10992;BME280;5549;47.028;15.514;2023-03-26T10:44:20;95740.06;;;13.70;54.43
10992;BME280;5549;47.028;15.514;2023-03-26T10:47:13;95757.34;;;13.80;54.62
10992;BME280;5549;47.028;15.514;2023-03-26T10:53:00;95745.47;;;13.93;53.42
10992;BME280;5549;47.028;15.514;2023-03-26T10:55:35;95742.59;;;14.19;53.79
10992;BME280;5549;47.028;15.514;2023-03-26T10:58:12;95735.25;;;14.37;52.50
10992;BME280;5549;47.028;15.514;2023-03-26T11:00:53;95718.88;;;14.41;51.67
10992;BME280;5549;47.028;15.514;2023-03-26T11:03:45;95716.97;;;14.66;51.94
10992;BME280;5549;47.028;15.514;2023-03-26T11:06:31;95716.63;;;14.92;51.57
10992;BME280;5549;47.028;15.514;2023-03-26T11:09:22;95720.31;;;14.60;52.73
10992;BME280;5549;47.028;15.514;2023-03-26T11:11:59;95711.91;;;15.25;51.96
10992;BME280;5549;47.028;15.514;2023-03-26T11:14:36;95707.38;;;15.71;52.69
10992;BME280;5549;47.028;15.514;2023-03-26T11:17:16;95694.69;;;15.67;51.00
10992;BME280;5549;47.028;15.514;2023-03-26T11:19:53;95694.25;;;15.63;48.63
10992;BME280;5549;47.028;15.514;2023-03-26T11:22:31;95693.09;;;15.58;50.75
10992;BME280;5549;47.028;15.514;2023-03-26T11:25:36;95680.19;;;15.78;49.57
10992;BME280;5549;47.028;15.514;2023-03-26T11:28:36;95664.94;;;15.94;49.41
10992;BME280;5549;47.028;15.514;2023-03-26T11:31:21;95664.81;;;16.17;49.37
10992;BME280;5549;47.028;15.514;2023-03-26T11:33:57;95646.13;;;16.04;49.89
10992;BME280;5549;47.028;15.514;2023-03-26T11:36:34;95638.38;;;16.39;49.19
10992;BME280;5549;47.028;15.514;2023-03-26T11:39:10;95623.09;;;16.77;50.75
10992;BME280;5549;47.028;15.514;2023-03-26T11:41:43;95627.41;;;17.06;48.35
10992;BME280;5549;47.028;15.514;2023-03-26T11:44:20;95624.25;;;16.53;47.36
10992;BME280;5549;47.028;15.514;2023-03-26T11:46:55;95615.00;;;17.34;45.97
10992;BME280;5549;47.028;15.514;2023-03-26T11:49:28;95612.47;;;17.82;47.95
10992;BME280;5549;47.028;15.514;2023-03-26T11:51:55;95603.22;;;18.19;44.95
10992;BME280;5549;47.028;15.514;2023-03-26T11:54:24;95610.16;;;18.20;42.11
10992;BME280;5549;47.028;15.514;2023-03-26T11:56:53;95595.91;;;17.80;42.50
10992;BME280;5549;47.028;15.514;2023-03-26T11:59:29;95594.63;;;17.41;43.62
10992;BME280;5549;47.028;15.514;2023-03-26T12:02:15;95581.00;;;17.79;43.25
10992;BME280;5549;47.028;15.514;2023-03-26T12:04:45;95567.09;;;17.42;42.65
10992;BME280;5549;47.028;15.514;2023-03-26T12:07:18;95564.97;;;17.66;43.22
10992;BME280;5549;47.028;15.514;2023-03-26T12:09:50;95563.88;;;17.53;44.38
10992;BME280;5549;47.028;15.514;2023-03-26T12:12:19;95564.31;;;17.29;43.45
10992;BME280;5549;47.028;15.514;2023-03-26T12:14:47;95561.00;;;17.48;42.76
10992;BME280;5549;47.028;15.514;2023-03-26T12:17:28;95547.88;;;17.40;43.81
10992;BME280;5549;47.028;15.514;2023-03-26T12:19:58;95546.47;;;17.16;45.42
10992;BME280;5549;47.028;15.514;2023-03-26T12:22:30;95535.00;;;17.09;44.29
10992;BME280;5549;47.028;15.514;2023-03-26T12:25:16;95537.66;;;16.81;44.82
10992;BME280;5549;47.028;15.514;2023-03-26T12:27:48;95524.03;;;16.84;44.86
10992;BME280;5549;47.028;15.514;2023-03-26T12:30:22;95520.06;;;17.02;45.77
10992;BME280;5549;47.028;15.514;2023-03-26T12:32:56;95523.41;;;16.61;46.22
10992;BME280;5549;47.028;15.514;2023-03-26T12:35:29;95509.31;;;16.82;46.44
10992;BME280;5549;47.028;15.514;2023-03-26T12:38:18;95506.66;;;16.82;46.10
10992;BME280;5549;47.028;15.514;2023-03-26T12:40:49;95510.41;;;16.66;46.50
10992;BME280;5549;47.028;15.514;2023-03-26T12:43:38;95500.78;;;16.86;47.05
10992;BME280;5549;47.028;15.514;2023-03-26T12:46:23;95489.16;;;17.22;46.96
10992;BME280;5549;47.028;15.514;2023-03-26T12:48:52;95499.47;;;17.04;46.29
10992;BME280;5549;47.028;15.514;2023-03-26T12:51:34;95496.97;;;16.67;46.84
10992;BME280;5549;47.028;15.514;2023-03-26T12:54:37;95484.88;;;17.21;45.23
10992;BME280;5549;47.028;15.514;2023-03-26T12:57:18;95482.22;;;17.21;45.89
10992;BME280;5549;47.028;15.514;2023-03-26T13:00:22;95487.38;;;16.94;45.41
10992;BME280;5549;47.028;15.514;2023-03-26T13:03:13;95473.25;;;17.22;45.80
10992;BME280;5549;47.028;15.514;2023-03-26T13:06:09;95467.09;;;17.15;46.74
10992;BME280;5549;47.028;15.514;2023-03-26T13:12:01;95466.81;;;17.38;43.85
10992;BME280;5549;47.028;15.514;2023-03-26T13:15:02;95457.84;;;17.39;43.46
10992;BME280;5549;47.028;15.514;2023-03-26T13:17:40;95453.56;;;17.44;43.83
10992;BME280;5549;47.028;15.514;2023-03-26T13:20:16;95451.44;;;17.68;43.85
10992;BME280;5549;47.028;15.514;2023-03-26T13:22:52;95455.38;;;17.37;44.80
10992;BME280;5549;47.028;15.514;2023-03-26T13:25:34;95446.28;;;17.59;44.26
10992;BME280;5549;47.028;15.514;2023-03-26T13:28:17;95444.50;;;17.73;44.86
10992;BME280;5549;47.028;15.514;2023-03-26T13:30:57;95439.56;;;17.63;43.36
10992;BME280;5549;47.028;15.514;2023-03-26T13:33:46;95430.56;;;17.64;44.60
10992;BME280;5549;47.028;15.514;2023-03-26T13:36:20;95424.09;;;17.74;44.95
10992;BME280;5549;47.028;15.514;2023-03-26T13:39:00;95413.22;;;17.62;43.74
10992;BME280;5549;47.028;15.514;2023-03-26T13:41:50;95419.53;;;17.61;43.46
10992;BME280;5549;47.028;15.514;2023-03-26T13:44:31;95406.53;;;17.73;44.63
10992;BME280;5549;47.028;15.514;2023-03-26T13:47:07;95398.69;;;17.51;45.36
10992;BME280;5549;47.028;15.514;2023-03-26T13:49:41;95396.56;;;17.33;46.13
10992;BME280;5549;47.028;15.514;2023-03-26T13:52:18;95385.41;;;17.51;45.88
10992;BME280;5549;47.028;15.514;2023-03-26T13:54:54;95387.66;;;17.54;45.30
10992;BME280;5549;47.028;15.514;2023-03-26T13:57:31;95378.34;;;17.72;43.88
10992;BME280;5549;47.028;15.514;2023-03-26T14:00:04;95378.69;;;17.55;45.42
10992;BME280;5549;47.028;15.514;2023-03-26T14:02:39;95380.34;;;17.09;45.09
10992;BME280;5549;47.028;15.514;2023-03-26T14:05:17;95383.84;;;17.22;44.79
10992;BME280;5549;47.028;15.514;2023-03-26T14:07:51;95376.75;;;17.29;44.75
10992;BME280;5549;47.028;15.514;2023-03-26T14:10:24;95376.78;;;16.88;45.14
10992;BME280;5549;47.028;15.514;2023-03-26T14:12:58;95374.25;;;17.21;45.02
10992;BME280;5549;47.028;15.514;2023-03-26T14:15:31;95370.16;;;17.12;45.65
10992;BME280;5549;47.028;15.514;2023-03-26T14:18:21;95368.09;;;17.08;45.06
10992;BME280;5549;47.028;15.514;2023-03-26T14:21:20;95361.41;;;17.18;45.30
10992;BME280;5549;47.028;15.514;2023-03-26T14:24:38;95350.41;;;17.28;45.60
10992;BME280;5549;47.028;15.514;2023-03-26T14:27:39;95352.84;;;17.23;46.73